Terminal Aerodrome Forecast
Issued by NWS

Home | Current Version | Previous Version | Text Only | Print | Product List | Glossary On
Versions: 1 2 3 4 5 6 7 8 9 10 11 12 13 14 15 16 17 18 19 20 21 22 23 24 25 26
000
FTUS46 KSGX 192335
TAFSAN
TAF
KSAN 192335Z 2000/2106 30007KT P6SM VCSH SCT010 BKN029 BKN070
     FM201500 20015G25KT 5SM RA BR SCT007 OVC015
     FM201900 21020G30KT 3SM RA BR OVC012
     FM210200 26020G30KT 6SM SHRA BKN025=

USA.gov is the U.S. government's official web portal to all federal, state and local government web resources and services.